createdAt,value
2023-03-13T00:00:59.688Z,1.30
2023-03-13T00:03:28.236Z,1.17
2023-03-13T00:05:59.689Z,1.60
2023-03-13T00:08:29.909Z,1.87
2023-03-13T00:11:13.883Z,1.37
2023-03-13T00:13:41.853Z,1.60
2023-03-13T00:16:11.678Z,1.33
2023-03-13T00:18:39.641Z,1.80
2023-03-13T00:21:09.147Z,1.50
2023-03-13T00:23:38.942Z,2.03
2023-03-13T00:26:08.454Z,1.50
2023-03-13T00:28:36.983Z,1.40
2023-03-13T00:31:26.050Z,1.37
2023-03-13T00:33:55.753Z,1.40
2023-03-13T00:36:28.992Z,1.43
2023-03-13T00:38:57.208Z,1.40
2023-03-13T00:41:29.555Z,1.80
2023-03-13T00:43:57.527Z,1.67
2023-03-13T00:46:26.972Z,1.00
2023-03-13T00:48:54.777Z,1.13
2023-03-13T00:51:22.849Z,1.20
2023-03-13T00:53:50.637Z,1.50
2023-03-13T00:56:19.024Z,1.27
2023-03-13T00:58:47.595Z,1.20
2023-03-13T01:01:20.892Z,1.00
2023-03-13T01:03:53.346Z,1.20
2023-03-13T01:06:23.069Z,1.03
2023-03-13T01:08:52.372Z,1.33
2023-03-13T01:11:22.187Z,1.10
2023-03-13T01:13:50.160Z,1.37
2023-03-13T01:16:19.874Z,1.20
2023-03-13T01:18:49.270Z,1.20
2023-03-13T01:21:18.304Z,1.43
2023-03-13T01:23:46.145Z,1.00
2023-03-13T01:26:14.055Z,1.07
2023-03-13T01:28:42.020Z,1.27
2023-03-13T01:31:18.735Z,1.30
2023-03-13T01:33:47.381Z,1.53
2023-03-13T01:36:15.274Z,1.13
2023-03-13T01:38:43.312Z,1.30
2023-03-13T01:41:12.607Z,1.00
2023-03-13T01:43:40.473Z,1.10
2023-03-13T01:46:21.156Z,1.07
2023-03-13T01:49:07.374Z,1.17
2023-03-13T01:51:45.740Z,1.40
2023-03-13T01:54:17.219Z,1.20
2023-03-13T01:56:49.947Z,1.13
2023-03-13T01:59:20.295Z,1.57
2023-03-13T02:01:48.582Z,1.73
2023-03-13T02:04:16.948Z,1.10
2023-03-13T02:06:45.482Z,1.43
2023-03-13T02:09:18.763Z,1.17
2023-03-13T02:11:56.168Z,1.30
2023-03-13T02:14:25.095Z,1.17
2023-03-13T02:16:53.121Z,0.93
2023-03-13T02:19:26.470Z,0.90
2023-03-13T02:21:56.317Z,1.37
2023-03-13T02:24:36.323Z,1.30
2023-03-13T02:27:04.703Z,0.87
2023-03-13T02:29:32.592Z,1.10
2023-03-13T02:32:00.790Z,0.90
2023-03-13T02:34:31.628Z,1.13
2023-03-13T02:37:00.449Z,1.27
2023-03-13T02:39:28.318Z,1.33
2023-03-13T02:41:56.144Z,1.00
2023-03-13T02:44:23.973Z,1.00
2023-03-13T02:46:53.553Z,1.23
2023-03-13T02:49:24.696Z,1.00
2023-03-13T02:51:52.862Z,1.13
2023-03-13T02:54:23.828Z,1.10
2023-03-13T02:56:55.596Z,1.13
2023-03-13T02:59:39.554Z,1.10
2023-03-13T03:02:07.377Z,1.20
2023-03-13T03:04:35.227Z,1.60
2023-03-13T03:07:03.031Z,0.93
2023-03-13T03:09:30.939Z,1.20
2023-03-13T03:11:58.790Z,1.10
2023-03-13T03:14:26.666Z,1.00
2023-03-13T03:16:54.499Z,1.00
2023-03-13T03:19:22.430Z,0.97
2023-03-13T03:21:50.804Z,1.00
2023-03-13T03:24:18.624Z,0.80
2023-03-13T03:26:46.551Z,0.97
2023-03-13T03:29:17.097Z,1.10
2023-03-13T03:31:45.018Z,0.90
2023-03-13T03:34:12.828Z,1.07
2023-03-13T03:36:40.719Z,1.07
2023-03-13T03:39:08.581Z,0.70
2023-03-13T03:41:37.070Z,0.80
2023-03-13T03:44:05.622Z,0.63
2023-03-13T03:46:33.626Z,0.83
2023-03-13T03:49:01.459Z,0.67
2023-03-13T03:51:29.331Z,1.37
2023-03-13T03:53:57.208Z,0.70
2023-03-13T03:56:25.163Z,0.60
2023-03-13T03:58:53.049Z,0.67
2023-03-13T04:01:20.928Z,0.70
2023-03-13T04:03:50.101Z,0.70
2023-03-13T04:06:17.925Z,0.60
2023-03-13T04:08:45.809Z,0.90
2023-03-13T04:11:13.617Z,0.77
2023-03-13T04:13:41.522Z,0.70
2023-03-13T04:16:10.116Z,0.70
2023-03-13T04:18:38.102Z,0.60
2023-03-13T04:21:06.521Z,0.83
2023-03-13T04:23:34.399Z,0.70
2023-03-13T04:26:02.248Z,0.67
2023-03-13T04:28:30.104Z,0.57
2023-03-13T04:31:02.583Z,0.70
2023-03-13T04:33:30.521Z,0.70
2023-03-13T04:36:01.867Z,0.80
2023-03-13T04:38:29.735Z,0.60
2023-03-13T04:40:57.759Z,0.77
2023-03-13T04:43:25.558Z,1.00
2023-03-13T04:45:56.088Z,0.60
2023-03-13T04:48:24.110Z,0.70
2023-03-13T04:50:52.213Z,0.60
2023-03-13T04:53:20.570Z,0.60
2023-03-13T04:55:48.758Z,1.03
2023-03-13T04:58:16.640Z,0.50
2023-03-13T05:00:44.509Z,0.50
2023-03-13T05:03:12.628Z,0.50
2023-03-13T05:05:40.521Z,0.43
2023-03-13T05:08:09.923Z,0.50
2023-03-13T05:10:37.850Z,1.00
2023-03-13T05:13:05.793Z,0.57
2023-03-13T05:15:33.657Z,0.30
2023-03-13T05:18:01.594Z,0.53
2023-03-13T05:20:29.569Z,0.50
2023-03-13T05:22:57.635Z,0.33
2023-03-13T05:25:25.458Z,0.40
2023-03-13T05:27:53.247Z,0.50
2023-03-13T05:30:21.200Z,0.37
2023-03-13T05:32:49.095Z,0.50
2023-03-13T05:35:17.037Z,0.70
2023-03-13T05:37:45.058Z,0.60
2023-03-13T05:40:13.522Z,0.50
2023-03-13T05:42:41.547Z,0.50
2023-03-13T05:45:10.599Z,0.57
2023-03-13T05:47:39.887Z,0.50
2023-03-13T05:50:08.636Z,0.70
2023-03-13T05:52:36.430Z,0.67
2023-03-13T05:55:04.260Z,0.67
2023-03-13T05:57:32.034Z,0.50
2023-03-13T06:00:00.766Z,0.80
2023-03-13T06:02:28.606Z,0.60
2023-03-13T06:04:56.675Z,0.50
2023-03-13T06:07:24.511Z,0.70
2023-03-13T06:09:52.328Z,0.37
2023-03-13T06:12:20.178Z,0.47
2023-03-13T06:14:48.027Z,0.60
2023-03-13T06:17:15.922Z,0.60
2023-03-13T06:19:44.135Z,0.50
2023-03-13T06:22:12.002Z,0.40
2023-03-13T06:24:39.937Z,0.60
2023-03-13T06:27:08.785Z,0.60
2023-03-13T06:29:36.634Z,0.60
2023-03-13T06:32:04.673Z,0.50
2023-03-13T06:34:32.509Z,0.53
2023-03-13T06:37:01.672Z,0.70
2023-03-13T06:39:29.722Z,0.60
2023-03-13T06:41:57.575Z,0.50
2023-03-13T06:44:25.555Z,0.63
2023-03-13T06:46:53.537Z,0.50
2023-03-13T06:49:21.505Z,0.80
2023-03-13T06:51:49.356Z,0.73
2023-03-13T06:54:17.230Z,0.60
2023-03-13T06:56:45.094Z,0.67
2023-03-13T06:59:12.917Z,0.60
2023-03-13T07:01:40.752Z,0.80
2023-03-13T07:04:08.679Z,0.80
2023-03-13T07:06:36.538Z,1.07
2023-03-13T07:09:06.257Z,0.93
2023-03-13T07:11:34.060Z,0.80
2023-03-13T07:14:15.884Z,0.60
2023-03-13T07:16:45.158Z,1.00
2023-03-13T07:19:13.253Z,0.90
2023-03-13T07:21:41.071Z,1.00
2023-03-13T07:24:09.058Z,0.80
2023-03-13T07:26:37.007Z,0.60
2023-03-13T07:29:05.285Z,0.50
2023-03-13T07:31:35.155Z,0.50
2023-03-13T07:34:03.050Z,0.70
2023-03-13T07:36:32.093Z,0.50
2023-03-13T07:39:00.043Z,0.40
2023-03-13T07:41:27.971Z,0.50
2023-03-13T07:43:55.738Z,0.40
2023-03-13T07:46:23.910Z,0.40
2023-03-13T07:48:52.462Z,0.60
2023-03-13T07:51:33.424Z,0.60
2023-03-13T07:54:05.097Z,0.50
2023-03-13T07:56:34.368Z,0.50
2023-03-13T07:59:02.558Z,0.70
2023-03-13T08:01:31.356Z,0.47
2023-03-13T08:04:02.329Z,0.63
2023-03-13T08:06:33.926Z,0.57
2023-03-13T08:09:08.593Z,0.60
2023-03-13T08:11:36.633Z,0.90
2023-03-13T08:14:04.613Z,0.70
2023-03-13T08:16:35.270Z,0.70
2023-03-13T08:19:15.798Z,0.70
2023-03-13T08:21:43.989Z,0.80
2023-03-13T08:24:12.578Z,0.57
2023-03-13T08:26:42.358Z,0.80
2023-03-13T08:29:15.174Z,0.70
2023-03-13T08:31:50.538Z,0.50
2023-03-13T08:34:18.716Z,0.40
2023-03-13T08:36:46.692Z,0.50
2023-03-13T08:39:19.118Z,0.63
2023-03-13T08:41:49.450Z,0.50
2023-03-13T08:44:21.672Z,0.37
2023-03-13T08:46:50.406Z,0.47
2023-03-13T08:49:18.839Z,0.60
2023-03-13T08:51:46.647Z,0.40
2023-03-13T08:54:14.551Z,0.47
2023-03-13T08:56:44.745Z,0.40
2023-03-13T08:59:12.670Z,0.32
2023-03-13T09:01:40.588Z,0.50
2023-03-13T09:04:08.651Z,0.30
2023-03-13T09:06:37.321Z,0.70
2023-03-13T09:09:05.502Z,0.50
2023-03-13T09:11:33.298Z,0.50
2023-03-13T09:14:01.194Z,0.52
2023-03-13T09:16:30.252Z,0.40
2023-03-13T09:18:58.436Z,0.60
2023-03-13T09:21:28.225Z,0.40
2023-03-13T09:23:56.080Z,0.50
2023-03-13T09:26:24.288Z,0.40
2023-03-13T09:28:53.022Z,0.40
2023-03-13T09:31:25.205Z,0.40
2023-03-13T09:33:53.156Z,0.62
2023-03-13T09:36:22.569Z,0.43
2023-03-13T09:38:51.946Z,0.30
2023-03-13T09:41:40.681Z,0.40
2023-03-13T09:44:15.927Z,0.50
2023-03-13T09:46:55.085Z,0.45
2023-03-13T09:49:22.965Z,0.40
2023-03-13T09:51:54.675Z,0.50
2023-03-13T09:54:37.672Z,0.35
2023-03-13T09:57:12.717Z,0.40
2023-03-13T09:59:49.397Z,0.40
2023-03-13T10:02:37.926Z,0.40
2023-03-13T10:05:14.693Z,0.40
2023-03-13T10:07:42.627Z,0.50
2023-03-13T10:10:22.704Z,0.50
2023-03-13T10:12:51.961Z,0.47
2023-03-13T10:15:59.449Z,0.55
2023-03-13T10:18:27.573Z,0.20
2023-03-13T10:20:58.581Z,0.45
2023-03-13T10:23:47.856Z,0.50
2023-03-13T10:26:33.216Z,0.50
2023-03-13T10:29:06.779Z,0.37
2023-03-13T10:31:35.299Z,0.47
2023-03-13T10:34:13.668Z,0.37
2023-03-13T10:36:48.964Z,0.75
2023-03-13T10:39:23.658Z,0.40
2023-03-13T10:41:51.593Z,0.40
2023-03-13T10:44:30.932Z,0.30
2023-03-13T10:47:01.560Z,0.60
2023-03-13T10:49:32.523Z,0.60
2023-03-13T10:52:04.788Z,0.47
2023-03-13T10:54:36.395Z,0.50
2023-03-13T10:57:19.518Z,0.62
2023-03-13T10:59:48.842Z,0.50
2023-03-13T11:02:37.197Z,0.52
2023-03-13T11:05:25.358Z,0.40
2023-03-13T11:07:53.983Z,0.50
2023-03-13T11:10:25.739Z,0.50
2023-03-13T11:12:55.729Z,0.50
2023-03-13T11:15:52.760Z,0.55
2023-03-13T11:18:54.764Z,0.50
2023-03-13T11:21:26.188Z,0.50
2023-03-13T11:24:03.088Z,0.50
2023-03-13T11:27:04.335Z,0.40
2023-03-13T11:30:00.877Z,0.43
2023-03-13T11:32:33.255Z,0.70
2023-03-13T11:35:02.085Z,0.45
2023-03-13T11:37:30.304Z,0.50
2023-03-13T11:40:22.442Z,0.47
2023-03-13T11:43:25.976Z,0.35
2023-03-13T11:46:09.477Z,0.40
2023-03-13T11:48:52.954Z,0.60
2023-03-13T11:51:39.573Z,0.40
2023-03-13T11:54:41.785Z,0.30
2023-03-13T11:57:16.040Z,0.30
2023-03-13T12:00:15.572Z,0.30
2023-03-13T12:02:52.861Z,0.43
2023-03-13T12:05:21.604Z,0.30
2023-03-13T12:07:54.016Z,0.40
2023-03-13T12:10:29.252Z,0.30
2023-03-13T12:12:58.504Z,0.32
2023-03-13T12:15:36.002Z,0.30
2023-03-13T12:18:19.046Z,0.30
2023-03-13T12:21:16.696Z,0.40
2023-03-13T12:23:57.361Z,0.22
2023-03-13T12:26:52.784Z,0.40
2023-03-13T12:29:56.518Z,0.40
2023-03-13T12:32:37.810Z,0.40
2023-03-13T12:35:10.347Z,0.40
2023-03-13T12:38:20.933Z,0.30
2023-03-13T12:40:51.112Z,0.40
2023-03-13T12:43:24.857Z,0.35
2023-03-13T12:45:58.918Z,0.32
2023-03-13T12:48:49.081Z,0.30
2023-03-13T12:51:59.303Z,0.28
2023-03-13T12:54:55.070Z,0.40
2023-03-13T12:57:44.297Z,0.40
2023-03-13T13:00:24.957Z,0.40
2023-03-13T13:03:25.037Z,0.30
2023-03-13T13:06:06.406Z,0.35
2023-03-13T13:08:37.621Z,0.20
2023-03-13T13:11:36.864Z,0.30
2023-03-13T13:14:13.268Z,0.32
2023-03-13T13:16:43.608Z,0.28
2023-03-13T13:19:26.704Z,0.30
2023-03-13T13:22:32.422Z,0.20
2023-03-13T13:25:01.193Z,0.35
2023-03-13T13:27:37.884Z,0.20
2023-03-13T13:30:06.516Z,0.20
2023-03-13T13:32:40.384Z,0.30
2023-03-13T13:35:14.324Z,0.20
2023-03-13T13:37:42.325Z,0.20
2023-03-13T13:40:30.744Z,0.10
2023-03-13T13:43:00.076Z,0.28
2023-03-13T13:45:36.795Z,0.30
2023-03-13T13:48:18.110Z,0.30
2023-03-13T13:51:15.297Z,0.30
2023-03-13T13:53:47.859Z,0.30
2023-03-13T13:56:42.304Z,0.30
2023-03-13T13:59:22.294Z,0.20
2023-03-13T14:01:52.933Z,0.30
2023-03-13T14:04:30.976Z,0.30
2023-03-13T14:07:00.387Z,0.20
2023-03-13T14:09:59.213Z,0.37
2023-03-13T14:12:31.352Z,0.47
2023-03-13T14:15:15.181Z,0.28
2023-03-13T14:17:52.481Z,0.40
2023-03-13T14:20:40.968Z,0.45
2023-03-13T14:23:10.639Z,0.35
2023-03-13T14:25:49.586Z,0.43
2023-03-13T14:28:28.244Z,0.47
2023-03-13T14:30:58.129Z,0.70
2023-03-13T14:33:28.037Z,0.70
2023-03-13T14:35:56.680Z,0.60
2023-03-13T14:38:27.174Z,0.60
2023-03-13T14:40:56.587Z,0.50
2023-03-13T14:43:36.877Z,0.60
2023-03-13T14:46:33.564Z,0.55
2023-03-13T14:49:17.134Z,0.80
2023-03-13T14:51:45.136Z,0.40
2023-03-13T14:54:29.692Z,0.68
2023-03-13T14:57:15.133Z,0.47
2023-03-13T14:59:44.457Z,0.40
2023-03-13T15:02:35.384Z,0.52
2023-03-13T15:05:08.661Z,0.50
2023-03-13T15:07:44.120Z,0.57
2023-03-13T15:10:32.797Z,0.50
2023-03-13T15:13:00.765Z,0.50
2023-03-13T15:15:28.759Z,0.60
2023-03-13T15:17:56.678Z,0.50
2023-03-13T15:20:24.805Z,0.57
2023-03-13T15:22:52.782Z,0.32
2023-03-13T15:25:22.003Z,0.40
2023-03-13T15:27:50.363Z,0.50
2023-03-13T15:30:19.506Z,0.45
2023-03-13T15:32:48.105Z,0.40
2023-03-13T15:35:33.093Z,0.60
2023-03-13T15:38:02.213Z,0.40
2023-03-13T15:40:33.540Z,0.60
2023-03-13T15:43:01.566Z,0.40
2023-03-13T15:45:30.817Z,0.55
2023-03-13T15:47:58.724Z,0.52
2023-03-13T15:50:31.937Z,0.60
2023-03-13T15:53:02.000Z,0.47
2023-03-13T15:55:30.120Z,0.30
2023-03-13T15:57:58.096Z,0.35
2023-03-13T16:00:27.183Z,0.60
2023-03-13T16:02:55.110Z,0.60
2023-03-13T16:05:23.050Z,0.50
2023-03-13T16:07:50.873Z,0.60
2023-03-13T16:10:25.605Z,0.70
2023-03-13T16:12:57.024Z,0.47
2023-03-13T16:15:24.865Z,0.50
2023-03-13T16:17:52.992Z,0.68
2023-03-13T16:20:22.763Z,0.75
2023-03-13T16:22:53.344Z,0.80
2023-03-13T16:25:21.459Z,0.60
2023-03-13T16:27:49.677Z,0.82
2023-03-13T16:30:25.884Z,0.70
2023-03-13T16:32:54.088Z,0.55
2023-03-13T16:35:22.191Z,0.60
2023-03-13T16:37:51.962Z,0.55
2023-03-13T16:40:26.238Z,0.40
2023-03-13T16:42:54.236Z,0.40
2023-03-13T16:45:22.368Z,0.50
2023-03-13T16:47:50.293Z,0.47
2023-03-13T16:50:33.879Z,0.57
2023-03-13T16:53:01.834Z,0.50
2023-03-13T16:55:29.734Z,0.50
2023-03-13T16:57:58.639Z,0.50
2023-03-13T17:00:27.823Z,0.50
2023-03-13T17:02:56.337Z,0.30
2023-03-13T17:05:24.198Z,0.82
2023-03-13T17:07:52.816Z,0.47
2023-03-13T17:10:29.790Z,0.60
2023-03-13T17:12:57.620Z,0.60
2023-03-13T17:15:26.120Z,0.57
2023-03-13T17:17:54.320Z,0.80
2023-03-13T17:20:27.163Z,0.52
2023-03-13T17:22:57.221Z,0.62
2023-03-13T17:25:26.013Z,0.60
2023-03-13T17:27:54.072Z,0.65
2023-03-13T17:30:27.549Z,1.10
2023-03-13T17:32:55.883Z,0.90
2023-03-13T17:35:25.580Z,0.93
2023-03-13T17:37:53.775Z,1.00
2023-03-13T17:40:29.279Z,0.70
2023-03-13T17:42:58.206Z,0.80
2023-03-13T17:45:26.370Z,0.80
2023-03-13T17:47:55.509Z,0.68
2023-03-13T17:50:25.492Z,0.70
2023-03-13T17:52:53.340Z,0.93
2023-03-13T17:55:21.268Z,0.70
2023-03-13T17:57:50.166Z,0.55
2023-03-13T18:00:21.434Z,1.40
2023-03-13T18:02:49.312Z,1.48
2023-03-13T18:05:17.326Z,1.23
2023-03-13T18:07:45.572Z,1.42
2023-03-13T18:10:24.529Z,1.00
2023-03-13T18:12:52.783Z,1.02
2023-03-13T18:15:25.115Z,1.20
2023-03-13T18:17:53.115Z,1.45
2023-03-13T18:20:23.212Z,1.30
2023-03-13T18:22:51.106Z,1.00
2023-03-13T18:25:18.953Z,1.17
2023-03-13T18:27:47.092Z,1.23
2023-03-13T18:30:19.755Z,1.30
2023-03-13T18:32:48.035Z,1.37
2023-03-13T18:35:16.265Z,1.30
2023-03-13T18:37:48.026Z,2.30
2023-03-13T18:40:20.994Z,2.67
2023-03-13T18:42:49.122Z,2.50
2023-03-13T18:45:18.466Z,2.75
2023-03-13T18:47:46.523Z,2.08
2023-03-13T18:50:47.081Z,5.07
2023-03-13T18:53:15.058Z,4.45
2023-03-13T18:55:42.964Z,4.20
2023-03-13T18:58:12.059Z,3.65
2023-03-13T19:00:40.239Z,4.07
2023-03-13T19:03:08.152Z,3.30
2023-03-13T19:05:36.236Z,5.43
2023-03-13T19:08:04.261Z,4.12
2023-03-13T19:10:32.728Z,5.05
2023-03-13T19:13:00.866Z,9.43
2023-03-13T19:15:33.217Z,5.68
2023-03-13T19:18:03.548Z,7.53
2023-03-13T19:20:32.087Z,8.05
2023-03-13T19:23:01.773Z,5.90
2023-03-13T19:25:30.562Z,6.07
2023-03-13T19:27:58.465Z,5.05
2023-03-13T19:30:27.372Z,4.65
2023-03-13T19:32:55.518Z,2.92
2023-03-13T19:35:23.536Z,2.97
2023-03-13T19:37:51.521Z,3.10
2023-03-13T19:40:20.671Z,3.00
2023-03-13T19:42:50.193Z,2.65
2023-03-13T19:45:22.912Z,3.20
2023-03-13T19:47:50.826Z,2.97
2023-03-13T19:50:23.718Z,3.03
2023-03-13T19:52:51.578Z,3.05
2023-03-13T19:55:19.506Z,3.27
2023-03-13T19:57:47.651Z,3.72
2023-03-13T20:00:31.220Z,3.90
2023-03-13T20:02:59.203Z,4.12
2023-03-13T20:05:29.846Z,3.33
2023-03-13T20:07:58.562Z,3.53
2023-03-13T20:10:26.716Z,3.57
2023-03-13T20:12:55.678Z,3.47
2023-03-13T20:15:23.651Z,3.60
2023-03-13T20:17:51.527Z,3.00
2023-03-13T20:20:19.546Z,2.83
2023-03-13T20:22:47.580Z,2.45
2023-03-13T20:25:17.056Z,2.90
2023-03-13T20:27:44.836Z,2.67
2023-03-13T20:30:13.097Z,2.58
2023-03-13T20:32:56.742Z,1.90
2023-03-13T20:35:26.926Z,1.65
2023-03-13T20:37:55.870Z,1.50
2023-03-13T20:40:24.214Z,1.90
2023-03-13T20:42:52.131Z,1.60
2023-03-13T20:45:20.083Z,1.15
2023-03-13T20:47:48.020Z,1.25
2023-03-13T20:50:16.996Z,0.80
2023-03-13T20:52:45.913Z,0.80
2023-03-13T20:55:13.829Z,0.80
2023-03-13T20:57:41.816Z,0.70
2023-03-13T21:00:12.768Z,0.68
2023-03-13T21:02:41.053Z,0.55
2023-03-13T21:05:09.514Z,0.50
2023-03-13T21:07:37.982Z,0.43
2023-03-13T21:10:06.474Z,0.55
2023-03-13T21:12:35.019Z,0.68
2023-03-13T21:15:06.570Z,0.62
2023-03-13T21:17:34.876Z,0.57
2023-03-13T21:20:03.304Z,0.50
2023-03-13T21:22:32.288Z,0.40
2023-03-13T21:25:00.479Z,0.60
2023-03-13T21:27:28.320Z,0.37
2023-03-13T21:29:56.190Z,0.30
2023-03-13T21:32:24.474Z,0.22
2023-03-13T21:34:52.482Z,0.40
2023-03-13T21:37:20.569Z,0.60
2023-03-13T21:39:52.077Z,0.40
2023-03-13T21:42:21.033Z,0.40
2023-03-13T21:44:51.646Z,0.20
2023-03-13T21:47:25.399Z,0.30
2023-03-13T21:49:53.889Z,0.40
2023-03-13T21:52:22.445Z,0.30
2023-03-13T21:54:50.522Z,0.35
2023-03-13T21:57:18.347Z,0.70
2023-03-13T21:59:46.188Z,0.30
2023-03-13T22:02:20.909Z,0.20
2023-03-13T22:04:48.922Z,0.40
2023-03-13T22:07:16.704Z,0.30
2023-03-13T22:09:44.603Z,0.70
2023-03-13T22:12:12.647Z,0.50
2023-03-13T22:14:40.508Z,0.50
2023-03-13T22:17:18.139Z,0.30
2023-03-13T22:19:48.799Z,0.32
2023-03-13T22:22:17.340Z,0.30
2023-03-13T22:24:45.350Z,0.35
2023-03-13T22:27:14.085Z,0.30
2023-03-13T22:29:49.489Z,0.30
2023-03-13T22:32:18.160Z,0.40
2023-03-13T22:34:48.374Z,0.50
2023-03-13T22:37:16.303Z,0.47
2023-03-13T22:39:44.362Z,0.57
2023-03-13T22:42:12.245Z,0.43
2023-03-13T22:44:40.100Z,0.40
2023-03-13T22:47:07.988Z,0.30
2023-03-13T22:49:35.813Z,0.30
2023-03-13T22:52:03.866Z,0.33
2023-03-13T22:54:31.790Z,0.30
2023-03-13T22:57:07.155Z,0.20
2023-03-13T22:59:35.058Z,0.30
2023-03-13T23:02:02.846Z,0.30
2023-03-13T23:04:30.692Z,0.70
2023-03-13T23:06:58.603Z,0.40
2023-03-13T23:09:26.363Z,0.30
2023-03-13T23:11:54.183Z,0.30
2023-03-13T23:14:22.011Z,0.40
2023-03-13T23:16:50.096Z,0.30
2023-03-13T23:19:17.964Z,0.40
2023-03-13T23:21:45.912Z,0.60
2023-03-13T23:24:18.457Z,0.90
2023-03-13T23:26:46.453Z,0.30
2023-03-13T23:29:15.325Z,0.20
2023-03-13T23:31:43.455Z,0.20
2023-03-13T23:34:11.297Z,0.10
2023-03-13T23:36:39.814Z,0.10
2023-03-13T23:39:07.873Z,0.20
2023-03-13T23:41:35.694Z,0.20
2023-03-13T23:44:03.543Z,0.20
2023-03-13T23:46:31.572Z,0.40
2023-03-13T23:48:59.704Z,0.30
2023-03-13T23:51:27.857Z,0.40
2023-03-13T23:53:55.736Z,0.10
2023-03-13T23:56:52.136Z,0.10
2023-03-13T23:59:20.203Z,0.20
